createdAt,value
2018-08-19T00:01:32.401Z,100386.92
2018-08-19T00:03:58.362Z,100387.58
2018-08-19T00:06:24.320Z,100383.77
2018-08-19T00:08:50.263Z,100388.55
2018-08-19T00:11:16.195Z,100385.56
2018-08-19T00:13:45.465Z,100386.00
2018-08-19T00:16:11.421Z,100382.75
2018-08-19T00:18:37.421Z,100381.28
2018-08-19T00:21:03.362Z,100379.55
2018-08-19T00:23:29.310Z,100374.30
2018-08-19T00:25:55.272Z,100370.69
2018-08-19T00:28:21.210Z,100374.78
2018-08-19T00:30:47.194Z,100373.23
2018-08-19T00:33:13.136Z,100373.23
2018-08-19T00:35:39.060Z,100375.45
2018-08-19T00:38:05.018Z,100378.11
2018-08-19T00:40:30.968Z,100388.04
2018-08-19T00:42:56.911Z,100383.09
2018-08-19T00:45:22.875Z,100382.92
2018-08-19T00:47:48.811Z,100386.73
2018-08-19T00:50:14.734Z,100381.27
2018-08-19T00:52:40.662Z,100384.19
2018-08-19T00:55:06.677Z,100380.27
2018-08-19T00:57:32.626Z,100388.30
2018-08-19T00:59:58.592Z,100386.26
2018-08-19T01:02:24.549Z,100381.75
2018-08-19T01:04:50.721Z,100384.09
2018-08-19T01:07:16.675Z,100388.22
2018-08-19T01:09:42.645Z,100390.66
2018-08-19T01:12:08.604Z,100383.82
2018-08-19T01:14:34.570Z,100388.80
2018-08-19T01:17:00.509Z,100388.80
2018-08-19T01:19:26.471Z,100391.14
2018-08-19T01:21:52.443Z,100391.20
2018-08-19T01:24:18.409Z,100390.09
2018-08-19T01:26:44.348Z,100393.17
2018-08-19T01:29:10.299Z,100390.98
2018-08-19T01:31:36.255Z,100386.52
2018-08-19T01:34:02.203Z,100381.98
2018-08-19T01:36:28.172Z,100383.97
2018-08-19T01:38:54.108Z,100386.36
2018-08-19T01:41:20.066Z,100389.06
2018-08-19T01:43:45.992Z,100381.97
2018-08-19T01:46:11.934Z,100390.88
2018-08-19T01:48:37.883Z,100392.67
2018-08-19T01:51:03.870Z,100390.02
2018-08-19T01:53:29.837Z,100395.67
2018-08-19T01:55:55.787Z,100398.92
2018-08-19T01:58:21.728Z,100401.06
2018-08-19T02:00:47.679Z,100396.19
2018-08-19T02:03:13.631Z,100398.17
2018-08-19T02:05:39.572Z,100393.78
2018-08-19T02:08:05.593Z,100390.94
2018-08-19T02:10:31.547Z,100394.17
2018-08-19T02:12:57.472Z,100397.73
2018-08-19T02:15:23.411Z,100391.30
2018-08-19T02:17:49.360Z,100391.30
2018-08-19T02:20:15.297Z,100389.16
2018-08-19T02:22:41.237Z,100389.36
2018-08-19T02:25:07.191Z,100386.64
2018-08-19T02:27:33.120Z,100388.56
2018-08-19T02:29:59.048Z,100387.86
2018-08-19T02:32:24.985Z,100389.87
2018-08-19T02:34:50.915Z,100378.97
2018-08-19T02:37:16.840Z,100380.75
2018-08-19T02:39:42.832Z,100379.34
2018-08-19T02:42:08.787Z,100375.66
2018-08-19T02:44:34.756Z,100376.69
2018-08-19T02:47:00.711Z,100379.67
2018-08-19T02:49:26.639Z,100373.56
2018-08-19T02:51:52.579Z,100369.41
2018-08-19T02:54:18.522Z,100375.66
2018-08-19T02:56:44.476Z,100364.33
2018-08-19T02:59:10.447Z,100357.03
2018-08-19T03:01:36.403Z,100358.61
2018-08-19T03:04:02.332Z,100354.72
2018-08-19T03:06:28.298Z,100350.70
2018-08-19T03:08:54.226Z,100352.17
2018-08-19T03:11:20.187Z,100348.94
2018-08-19T03:13:46.128Z,100351.52
2018-08-19T03:16:12.058Z,100346.11
2018-08-19T03:18:38.015Z,100356.31
2018-08-19T03:21:03.959Z,100353.83
2018-08-19T03:23:29.912Z,100354.77
2018-08-19T03:25:55.839Z,100354.98
2018-08-19T03:28:21.799Z,100348.46
2018-08-19T03:30:47.731Z,100343.30
2018-08-19T03:33:13.709Z,100344.14
2018-08-19T03:35:39.636Z,100336.73
2018-08-19T03:38:05.595Z,100339.05
2018-08-19T03:40:31.544Z,100339.91
2018-08-19T03:42:57.488Z,100341.44
2018-08-19T03:45:23.415Z,100343.30
2018-08-19T03:47:49.377Z,100344.09
2018-08-19T03:50:15.312Z,100339.20
2018-08-19T03:52:41.265Z,100335.05
2018-08-19T03:55:07.208Z,100327.34
2018-08-19T03:57:33.521Z,100329.89
2018-08-19T03:59:59.512Z,100334.03
2018-08-19T04:02:25.479Z,100338.61
2018-08-19T04:04:51.426Z,100346.73
2018-08-19T04:07:17.432Z,100342.86
2018-08-19T04:09:43.372Z,100346.56
2018-08-19T04:12:09.319Z,100351.44
2018-08-19T04:14:35.267Z,100351.31
2018-08-19T04:17:01.250Z,100352.37
2018-08-19T04:19:27.194Z,100352.30
2018-08-19T04:21:53.127Z,100352.09
2018-08-19T04:24:19.064Z,100351.84
2018-08-19T04:26:45.008Z,100352.12
2018-08-19T04:29:10.978Z,100345.53
2018-08-19T04:31:36.951Z,100346.29
2018-08-19T04:34:02.889Z,100348.87
2018-08-19T04:36:28.809Z,100353.01
2018-08-19T04:38:54.762Z,100357.25
2018-08-19T04:41:20.713Z,100356.98
2018-08-19T04:43:46.657Z,100360.36
2018-08-19T04:46:12.638Z,100361.63
2018-08-19T04:48:38.578Z,100367.33
2018-08-19T04:51:04.514Z,100367.25
2018-08-19T04:53:30.453Z,100366.23
2018-08-19T04:55:56.376Z,100368.59
2018-08-19T04:58:22.357Z,100363.30
2018-08-19T05:00:48.313Z,100360.61
2018-08-19T05:03:14.289Z,100365.77
2018-08-19T05:05:40.234Z,100359.55
2018-08-19T05:08:06.306Z,100360.77
2018-08-19T05:10:32.213Z,100362.39
2018-08-19T05:12:58.155Z,100363.49
2018-08-19T05:15:24.133Z,100363.73
2018-08-19T05:17:50.073Z,100365.91
2018-08-19T05:20:16.035Z,100366.35
2018-08-19T05:22:42.118Z,100378.51
2018-08-19T05:25:08.027Z,100372.56
2018-08-19T05:27:33.992Z,100371.70
2018-08-19T05:29:59.947Z,100376.73
2018-08-19T05:32:25.886Z,100380.91
2018-08-19T05:34:51.852Z,100383.61
2018-08-19T05:37:17.777Z,100388.84
2018-08-19T05:39:43.776Z,100392.14
2018-08-19T05:42:09.719Z,100394.16
2018-08-19T05:44:35.716Z,100387.88
2018-08-19T05:47:01.815Z,100379.88
2018-08-19T05:49:27.729Z,100385.38
2018-08-19T05:51:53.677Z,100384.71
2018-08-19T05:54:19.645Z,100390.20
2018-08-19T05:56:45.578Z,100387.15
2018-08-19T05:59:11.544Z,100388.91
2018-08-19T06:01:37.508Z,100396.39
2018-08-19T06:04:03.468Z,100397.38
2018-08-19T06:06:29.419Z,100396.02
2018-08-19T06:08:55.388Z,100402.69
2018-08-19T06:11:21.340Z,100404.34
2018-08-19T06:13:47.288Z,100409.93
2018-08-19T06:16:13.221Z,100407.09
2018-08-19T06:18:39.161Z,100407.75
2018-08-19T06:21:05.112Z,100407.79
2018-08-19T06:23:31.050Z,100411.23
2018-08-19T06:25:56.988Z,100403.66
2018-08-19T06:28:22.972Z,100407.78
2018-08-19T06:30:48.942Z,100403.09
2018-08-19T06:33:14.897Z,100405.00
2018-08-19T06:35:40.851Z,100402.57
2018-08-19T06:38:06.815Z,100405.39
2018-08-19T06:40:32.800Z,100403.03
2018-08-19T06:42:58.750Z,100402.72
2018-08-19T06:45:24.712Z,100407.88
2018-08-19T06:47:50.656Z,100404.13
2018-08-19T06:50:16.613Z,100400.98
2018-08-19T06:52:42.540Z,100406.58
2018-08-19T06:55:08.472Z,100402.56
2018-08-19T06:57:34.401Z,100407.20
2018-08-19T07:00:00.344Z,100410.77
2018-08-19T07:02:26.289Z,100403.24
2018-08-19T07:04:52.245Z,100407.83
2018-08-19T07:07:18.188Z,100408.54
2018-08-19T07:09:44.144Z,100410.52
2018-08-19T07:12:10.088Z,100408.51
2018-08-19T07:14:36.039Z,100410.47
2018-08-19T07:17:02.011Z,100404.07
2018-08-19T07:19:27.971Z,100418.23
2018-08-19T07:21:53.925Z,100403.80
2018-08-19T07:24:19.869Z,100405.94
2018-08-19T07:26:45.796Z,100416.03
2018-08-19T07:29:11.764Z,100404.94
2018-08-19T07:31:38.059Z,100416.27
2018-08-19T07:34:04.301Z,100410.16
2018-08-19T07:36:30.255Z,100414.96
2018-08-19T07:38:56.217Z,100408.10
2018-08-19T07:41:22.182Z,100410.68
2018-08-19T07:43:48.182Z,100414.41
2018-08-19T07:46:14.164Z,100415.23
2018-08-19T07:48:40.119Z,100416.14
2018-08-19T07:51:07.084Z,100416.07
2018-08-19T07:53:33.057Z,100411.52
2018-08-19T07:55:59.060Z,100408.42
2018-08-19T07:58:24.993Z,100405.12
2018-08-19T08:00:50.962Z,100411.92
2018-08-19T08:03:16.900Z,100408.47
2018-08-19T08:05:42.888Z,100404.73
2018-08-19T08:08:08.858Z,100406.27
2018-08-19T08:10:34.819Z,100403.75
2018-08-19T08:13:00.826Z,100402.41
2018-08-19T08:15:26.786Z,100398.41
2018-08-19T08:17:52.778Z,100404.45
2018-08-19T08:20:18.749Z,100406.44
2018-08-19T08:22:44.707Z,100405.98
2018-08-19T08:25:10.659Z,100410.92
2018-08-19T08:27:36.619Z,100410.11
2018-08-19T08:30:02.613Z,100411.41
2018-08-19T08:32:28.557Z,100409.35
2018-08-19T08:34:54.520Z,100403.39
2018-08-19T08:37:20.477Z,100409.84
2018-08-19T08:39:46.428Z,100411.00
2018-08-19T08:42:12.380Z,100399.14
2018-08-19T08:44:38.335Z,100395.58
2018-08-19T08:47:04.282Z,100399.55
2018-08-19T08:49:30.357Z,100396.01
2018-08-19T08:51:56.323Z,100393.83
2018-08-19T08:54:22.346Z,100387.72
2018-08-19T08:56:48.294Z,100387.02
2018-08-19T08:59:14.248Z,100379.58
2018-08-19T09:01:40.192Z,100378.61
2018-08-19T09:04:06.150Z,100378.22
2018-08-19T09:06:32.115Z,100376.93
2018-08-19T09:08:58.083Z,100371.92
2018-08-19T09:11:24.032Z,100371.72
2018-08-19T09:13:49.982Z,100367.23
2018-08-19T09:16:15.946Z,100362.88
2018-08-19T09:18:41.924Z,100365.94
2018-08-19T09:21:07.883Z,100361.52
2018-08-19T09:23:33.859Z,100360.59
2018-08-19T09:25:59.817Z,100354.50
2018-08-19T09:28:25.825Z,100354.48
2018-08-19T09:30:51.780Z,100342.25
2018-08-19T09:33:17.743Z,100342.80
2018-08-19T09:35:43.702Z,100340.02
2018-08-19T09:38:09.665Z,100335.91
2018-08-19T09:40:35.634Z,100335.08
2018-08-19T09:43:01.619Z,100334.28
2018-08-19T09:45:27.588Z,100331.95
2018-08-19T09:47:53.700Z,100329.23
2018-08-19T09:50:19.528Z,100324.78
2018-08-19T09:52:45.515Z,100322.96
2018-08-19T09:55:11.453Z,100324.69
2018-08-19T09:57:37.448Z,100314.78
2018-08-19T10:00:03.354Z,100313.09
2018-08-19T10:02:29.330Z,100307.35
2018-08-19T10:04:55.677Z,100300.48
2018-08-19T10:07:21.664Z,100303.84
2018-08-19T10:09:47.740Z,100301.64
2018-08-19T10:12:13.685Z,100300.19
2018-08-19T10:14:39.911Z,100300.23
2018-08-19T10:17:05.897Z,100295.51
2018-08-19T10:19:31.851Z,100295.53
2018-08-19T10:21:57.795Z,100282.84
2018-08-19T10:24:23.760Z,100288.02
2018-08-19T10:26:49.718Z,100286.34
2018-08-19T10:29:15.685Z,100282.44
2018-08-19T10:31:41.624Z,100279.15
2018-08-19T10:34:07.591Z,100271.34
2018-08-19T10:36:33.545Z,100272.66
2018-08-19T10:38:59.477Z,100267.30
2018-08-19T10:41:25.400Z,100271.78
2018-08-19T10:43:51.366Z,100271.14
2018-08-19T10:46:17.493Z,100266.34
2018-08-19T10:48:43.353Z,100261.69
2018-08-19T10:51:09.289Z,100260.13
2018-08-19T10:53:35.215Z,100260.20
2018-08-19T10:56:01.188Z,100253.23
2018-08-19T10:58:27.163Z,100248.03
2018-08-19T11:00:53.129Z,100240.59
2018-08-19T11:03:19.088Z,100235.38
2018-08-19T11:05:45.056Z,100237.14
2018-08-19T11:08:11.009Z,100234.31
2018-08-19T11:10:36.945Z,100234.83
2018-08-19T11:13:02.935Z,100226.73
2018-08-19T11:15:28.920Z,100221.73
2018-08-19T11:17:54.910Z,100215.70
2018-08-19T11:20:20.848Z,100213.06
2018-08-19T11:22:46.812Z,100216.27
2018-08-19T11:25:12.795Z,100212.91
2018-08-19T11:27:38.879Z,100204.68
2018-08-19T11:30:04.773Z,100201.10
2018-08-19T11:32:30.733Z,100205.21
2018-08-19T11:34:56.669Z,100199.91
2018-08-19T11:37:22.618Z,100201.21
2018-08-19T11:39:48.581Z,100189.34
2018-08-19T11:42:14.512Z,100191.20
2018-08-19T11:44:40.474Z,100187.47
2018-08-19T11:47:06.417Z,100188.16
2018-08-19T11:49:32.382Z,100189.89
2018-08-19T11:51:58.344Z,100179.56
2018-08-19T11:54:24.289Z,100179.70
2018-08-19T11:56:50.270Z,100180.55
2018-08-19T11:59:16.285Z,100179.73
2018-08-19T12:01:42.241Z,100174.80
2018-08-19T12:04:08.300Z,100177.27
2018-08-19T12:06:34.276Z,100170.45
2018-08-19T12:09:00.231Z,100168.59
2018-08-19T12:11:26.182Z,100163.74
2018-08-19T12:13:52.142Z,100160.37
2018-08-19T12:16:18.153Z,100156.30
2018-08-19T12:18:44.133Z,100156.82
2018-08-19T12:21:10.104Z,100155.87
2018-08-19T12:23:36.039Z,100150.48
2018-08-19T12:26:02.011Z,100151.58
2018-08-19T12:28:28.051Z,100144.02
2018-08-19T12:30:53.999Z,100143.81
2018-08-19T12:33:19.931Z,100140.27
2018-08-19T12:35:45.906Z,100138.97
2018-08-19T12:38:11.841Z,100132.53
2018-08-19T12:40:37.804Z,100123.16
2018-08-19T12:43:03.747Z,100124.91
2018-08-19T12:45:29.729Z,100115.52
2018-08-19T12:47:55.673Z,100105.19
2018-08-19T12:50:21.708Z,100107.78
2018-08-19T12:52:47.569Z,100100.66
2018-08-19T12:55:13.517Z,100100.92
2018-08-19T12:57:39.461Z,100094.70
2018-08-19T13:00:05.460Z,100093.84
2018-08-19T13:02:31.893Z,100095.26
2018-08-19T13:04:57.892Z,100090.16
2018-08-19T13:07:23.838Z,100086.41
2018-08-19T13:09:49.822Z,100086.30
2018-08-19T13:12:15.814Z,100070.45
2018-08-19T13:14:42.153Z,100067.40
2018-08-19T13:17:08.089Z,100068.10
2018-08-19T13:19:34.061Z,100070.59
2018-08-19T13:22:00.044Z,100065.72
2018-08-19T13:24:25.986Z,100065.58
2018-08-19T13:26:51.968Z,100074.58
2018-08-19T13:29:17.929Z,100075.34
2018-08-19T13:31:43.904Z,100073.76
2018-08-19T13:36:42.328Z,100071.16
2018-08-19T13:39:08.281Z,100061.13
2018-08-19T13:41:34.254Z,100069.91
2018-08-19T13:44:00.212Z,100060.80
2018-08-19T13:46:26.188Z,100059.63
2018-08-19T13:48:52.135Z,100059.63
2018-08-19T13:51:18.113Z,100054.16
2018-08-19T13:53:44.109Z,100064.81
2018-08-19T13:56:10.101Z,100068.30
2018-08-19T13:58:36.086Z,100058.09
2018-08-19T14:01:02.052Z,100051.64
2018-08-19T14:03:28.023Z,100050.88
2018-08-19T14:05:54.013Z,100042.59
2018-08-19T14:08:19.989Z,100044.98
2018-08-19T14:10:45.973Z,100047.53
2018-08-19T14:13:11.969Z,100041.32
2018-08-19T14:15:37.937Z,100041.54
2018-08-19T14:18:03.905Z,100041.89
2018-08-19T14:20:29.869Z,100038.50
2018-08-19T14:22:55.815Z,100032.86
2018-08-19T14:25:21.779Z,100035.79
2018-08-19T14:27:47.754Z,100033.70
2018-08-19T14:30:13.827Z,100035.45
2018-08-19T14:32:39.686Z,100034.38
2018-08-19T14:35:05.644Z,100024.19
2018-08-19T14:37:31.606Z,100022.23
2018-08-19T14:39:57.714Z,100019.95
2018-08-19T14:42:23.696Z,100012.55
2018-08-19T14:44:49.634Z,100018.33
2018-08-19T14:47:15.609Z,100014.31
2018-08-19T14:49:41.533Z,100017.38
2018-08-19T14:52:07.511Z,100012.55
2018-08-19T14:54:33.442Z,100019.11
2018-08-19T14:56:59.508Z,100013.56
2018-08-19T14:59:25.528Z,100005.77
2018-08-19T15:01:51.661Z,100008.64
2018-08-19T15:04:17.616Z,99997.86
2018-08-19T15:06:43.557Z,100002.14
2018-08-19T15:09:09.537Z,99996.55
2018-08-19T15:11:35.494Z,99995.06
2018-08-19T15:14:01.426Z,99987.83
2018-08-19T15:16:27.445Z,99985.95
2018-08-19T15:18:53.426Z,99977.04
2018-08-19T15:21:19.395Z,99983.35
2018-08-19T15:23:45.381Z,99987.98
2018-08-19T15:26:11.321Z,99982.55
2018-08-19T15:28:37.261Z,99979.64
2018-08-19T15:31:03.224Z,99984.72
2018-08-19T15:33:29.180Z,99977.25
2018-08-19T15:35:55.114Z,99974.55
2018-08-19T15:38:21.047Z,99977.99
2018-08-19T15:40:47.049Z,99967.47
2018-08-19T15:43:13.008Z,99972.22
2018-08-19T15:45:38.996Z,99972.79
2018-08-19T15:48:04.965Z,99971.83
2018-08-19T15:50:31.010Z,99968.77
2018-08-19T15:52:57.047Z,99962.44
2018-08-19T15:55:23.042Z,99964.98
2018-08-19T15:57:48.983Z,99958.98
2018-08-19T16:00:14.944Z,99962.04
2018-08-19T16:02:40.898Z,99964.63
2018-08-19T16:05:06.857Z,99954.58
2018-08-19T16:07:32.873Z,99950.44
2018-08-19T16:09:58.814Z,99942.40
2018-08-19T16:12:24.837Z,99951.50
2018-08-19T16:14:50.790Z,99947.61
2018-08-19T16:17:16.735Z,99949.02
2018-08-19T16:19:42.685Z,99947.49
2018-08-19T16:22:08.712Z,99943.48
2018-08-19T16:24:34.749Z,99942.75
2018-08-19T16:27:00.723Z,99937.61
2018-08-19T16:29:26.760Z,99941.89
2018-08-19T16:31:52.907Z,99934.90
2018-08-19T16:34:18.832Z,99932.19
2018-08-19T16:36:44.781Z,99933.09
2018-08-19T16:39:10.761Z,99934.09
2018-08-19T16:41:36.741Z,99934.59
2018-08-19T16:44:02.710Z,99931.50
2018-08-19T16:46:28.748Z,99927.37
2018-08-19T16:48:54.764Z,99916.91
2018-08-19T16:51:20.732Z,99922.34
2018-08-19T16:53:46.691Z,99920.20
2018-08-19T16:56:12.627Z,99922.00
2018-08-19T16:58:38.588Z,99923.19
2018-08-19T17:01:04.558Z,99920.13
2018-08-19T17:03:30.510Z,99918.83
2018-08-19T17:05:56.467Z,99922.84
2018-08-19T17:08:22.395Z,99922.27
2018-08-19T17:10:48.373Z,99921.93
2018-08-19T17:13:14.336Z,99919.52
2018-08-19T17:15:40.268Z,99921.70
2018-08-19T17:18:06.196Z,99924.08
2018-08-19T17:20:32.156Z,99922.89
2018-08-19T17:22:58.087Z,99919.80
2018-08-19T17:25:24.151Z,99922.20
2018-08-19T17:27:50.088Z,99922.16
2018-08-19T17:30:16.093Z,99920.09
2018-08-19T17:32:42.093Z,99921.05
2018-08-19T17:35:08.109Z,99922.13
2018-08-19T17:37:34.067Z,99919.87
2018-08-19T17:40:00.049Z,99921.28
2018-08-19T17:42:26.042Z,99923.66
2018-08-19T17:44:52.019Z,99924.00
2018-08-19T17:47:17.960Z,99922.20
2018-08-19T17:49:44.016Z,99926.48
2018-08-19T17:52:10.023Z,99923.66
2018-08-19T17:54:35.905Z,99928.25
2018-08-19T17:57:01.909Z,99922.93
2018-08-19T17:59:28.115Z,99925.91
2018-08-19T18:01:53.986Z,99933.45
2018-08-19T18:04:20.034Z,99934.64
2018-08-19T18:06:45.983Z,99933.45
2018-08-19T18:11:38.243Z,99933.45
2018-08-19T18:14:04.221Z,99936.89
2018-08-19T18:16:30.192Z,99933.56
2018-08-19T18:18:56.163Z,99937.09
2018-08-19T18:21:22.170Z,99940.61
2018-08-19T18:23:48.125Z,99937.66
2018-08-19T18:26:14.081Z,99951.97
2018-08-19T18:28:40.099Z,99946.42
2018-08-19T18:31:06.049Z,99946.64
2018-08-19T18:33:32.044Z,99951.58
2018-08-19T18:35:58.044Z,99953.79
2018-08-19T18:38:24.157Z,99954.39
2018-08-19T18:40:50.006Z,99960.43
2018-08-19T18:43:15.967Z,99954.31
2018-08-19T18:45:41.968Z,99964.03
2018-08-19T18:48:08.094Z,99960.81
2018-08-19T18:50:34.182Z,99955.72
2018-08-19T18:53:00.343Z,99958.16
2018-08-19T18:55:26.373Z,99959.84
2018-08-19T18:57:52.328Z,99959.95
2018-08-19T19:00:18.297Z,99961.08
2018-08-19T19:02:44.377Z,99959.32
2018-08-19T19:05:10.508Z,99957.50
2018-08-19T19:07:36.556Z,99957.83
2018-08-19T19:10:02.529Z,99954.80
2018-08-19T19:12:28.489Z,99949.05
2018-08-19T19:14:54.429Z,99950.47
2018-08-19T19:17:20.374Z,99949.92
2018-08-19T19:19:46.339Z,99946.95
2018-08-19T19:22:12.347Z,99950.36
2018-08-19T19:24:38.307Z,99950.41
2018-08-19T19:27:04.282Z,99944.89
2018-08-19T19:29:30.256Z,99945.08
2018-08-19T19:31:56.201Z,99938.44
2018-08-19T19:34:22.315Z,99943.56
2018-08-19T19:36:48.135Z,99948.84
2018-08-19T19:39:14.109Z,99942.99
2018-08-19T19:41:40.059Z,99946.57
2018-08-19T19:44:06.018Z,99942.11
2018-08-19T19:46:32.004Z,99942.63
2018-08-19T19:48:57.986Z,99943.91
2018-08-19T19:51:23.972Z,99936.73
2018-08-19T19:53:49.933Z,99938.88
2018-08-19T19:56:16.300Z,99940.97
2018-08-19T19:58:42.289Z,99937.30
2018-08-19T20:01:08.319Z,99935.34
2018-08-19T20:03:34.270Z,99936.11
2018-08-19T20:06:00.228Z,99929.52
2018-08-19T20:08:26.254Z,99935.10
2018-08-19T20:10:52.212Z,99935.77
2018-08-19T20:13:18.213Z,99936.91
2018-08-19T20:15:44.184Z,99935.38
2018-08-19T20:18:10.255Z,99941.88
2018-08-19T20:20:36.320Z,99940.83
2018-08-19T20:23:02.429Z,99935.38
2018-08-19T20:25:28.558Z,99937.88
2018-08-19T20:27:54.543Z,99942.50
2018-08-19T20:30:20.575Z,99941.39
2018-08-19T20:32:46.621Z,99935.16
2018-08-19T20:35:12.686Z,99938.50
2018-08-19T20:40:10.130Z,99932.16
2018-08-19T20:42:36.166Z,99940.17
2018-08-19T20:45:02.170Z,99936.86
2018-08-19T20:47:28.197Z,99941.80
2018-08-19T20:49:54.214Z,99939.22
2018-08-19T20:52:20.263Z,99939.02
2018-08-19T20:54:48.035Z,99940.80
2018-08-19T20:57:15.939Z,99940.00
2018-08-19T20:59:42.013Z,99936.09
2018-08-19T21:02:08.033Z,99936.75
2018-08-19T21:04:37.760Z,99939.33
2018-08-19T21:07:06.929Z,99937.57
2018-08-19T21:09:32.953Z,99932.19
2018-08-19T21:11:58.962Z,99940.89
2018-08-19T21:14:24.930Z,99933.41
2018-08-19T21:16:50.974Z,99933.52
2018-08-19T21:19:16.930Z,99935.55
2018-08-19T21:21:42.861Z,99934.80
2018-08-19T21:24:08.804Z,99935.97
2018-08-19T21:26:34.737Z,99932.06
2018-08-19T21:29:00.688Z,99932.16
2018-08-19T21:31:26.612Z,99932.75
2018-08-19T21:33:52.565Z,99934.77
2018-08-19T21:36:18.501Z,99931.54
2018-08-19T21:38:44.438Z,99931.95
2018-08-19T21:41:10.366Z,99935.40
2018-08-19T21:43:36.302Z,99934.75
2018-08-19T21:46:02.245Z,99936.88
2018-08-19T21:48:28.178Z,99926.91
2018-08-19T21:50:54.097Z,99930.49
2018-08-19T21:53:20.082Z,99931.94
2018-08-19T21:55:46.020Z,99932.23
2018-08-19T21:58:11.963Z,99931.55
2018-08-19T22:00:37.905Z,99933.49
2018-08-19T22:03:03.833Z,99930.31
2018-08-19T22:05:29.792Z,99929.16
2018-08-19T22:07:55.735Z,99923.72
2018-08-19T22:10:21.684Z,99924.72
2018-08-19T22:12:47.637Z,99929.34
2018-08-19T22:15:13.585Z,99928.67
2018-08-19T22:17:39.509Z,99922.70
2018-08-19T22:20:05.475Z,99918.44
2018-08-19T22:22:31.425Z,99919.32
2018-08-19T22:24:57.400Z,99926.15
2018-08-19T22:27:23.403Z,99922.66
2018-08-19T22:29:49.339Z,99925.05
2018-08-19T22:32:15.268Z,99925.63
2018-08-19T22:34:41.240Z,99927.90
2018-08-19T22:37:07.188Z,99918.80
2018-08-19T22:39:33.143Z,99923.34
2018-08-19T22:41:59.092Z,99924.78
2018-08-19T22:44:25.067Z,99923.35
2018-08-19T22:46:51.005Z,99914.18
2018-08-19T22:49:16.966Z,99914.98
2018-08-19T22:51:42.904Z,99923.13
2018-08-19T22:54:08.856Z,99919.11
2018-08-19T22:56:34.801Z,99924.05
2018-08-19T22:59:00.752Z,99922.80
2018-08-19T23:01:26.696Z,99923.58
2018-08-19T23:03:52.620Z,99926.34
2018-08-19T23:06:18.544Z,99921.08
2018-08-19T23:08:44.490Z,99921.98
2018-08-19T23:11:10.475Z,99923.98
2018-08-19T23:13:36.435Z,99920.22
2018-08-19T23:16:02.391Z,99923.08
2018-08-19T23:18:28.342Z,99919.36
2018-08-19T23:20:54.314Z,99921.04
2018-08-19T23:23:20.264Z,99921.72
2018-08-19T23:25:46.204Z,99914.55
2018-08-19T23:28:12.153Z,99912.03
2018-08-19T23:30:38.096Z,99914.81
2018-08-19T23:33:04.021Z,99920.82
2018-08-19T23:35:29.984Z,99920.82
2018-08-19T23:37:55.926Z,99919.08
2018-08-19T23:40:21.888Z,99918.80
2018-08-19T23:42:47.832Z,99918.16
2018-08-19T23:45:13.771Z,99915.89
2018-08-19T23:47:39.701Z,99912.39
2018-08-19T23:50:05.638Z,99914.95
2018-08-19T23:52:31.580Z,99912.42
2018-08-19T23:54:57.528Z,99912.04
2018-08-19T23:57:23.455Z,99910.55
2018-08-19T23:59:49.383Z,99909.27
